createdAt,value
2019-05-15T00:00:25.101Z,0.00
2019-05-15T00:01:25.253Z,0.00
2019-05-15T00:02:25.059Z,0.00
2019-05-15T00:03:25.271Z,0.00
2019-05-15T00:04:25.088Z,0.00
2019-05-15T00:05:25.200Z,0.00
2019-05-15T00:06:25.027Z,0.00
2019-05-15T00:07:25.183Z,0.00
2019-05-15T00:08:25.063Z,0.00
2019-05-15T00:09:25.152Z,0.00
2019-05-15T00:10:25.008Z,0.00
2019-05-15T00:11:25.056Z,0.00
2019-05-15T00:12:25.194Z,0.00
2019-05-15T00:13:28.082Z,0.00
2019-05-15T00:14:28.791Z,0.00
2019-05-15T00:15:24.933Z,0.00
2019-05-15T00:16:25.006Z,0.00
2019-05-15T00:17:24.942Z,0.00
2019-05-15T00:18:24.966Z,0.00
2019-05-15T00:19:24.883Z,0.00
2019-05-15T00:20:25.039Z,0.00
2019-05-15T00:21:24.885Z,0.00
2019-05-15T00:22:24.890Z,0.00
2019-05-15T00:23:24.898Z,0.00
2019-05-15T00:24:24.901Z,0.00
2019-05-15T00:25:24.929Z,0.00
2019-05-15T00:26:24.854Z,0.00
2019-05-15T00:27:24.806Z,0.00
2019-05-15T00:28:24.830Z,0.00
2019-05-15T00:29:24.786Z,0.00
2019-05-15T00:30:24.912Z,0.00
2019-05-15T00:31:24.764Z,0.00
2019-05-15T00:32:24.752Z,0.00
2019-05-15T00:33:24.984Z,0.00
2019-05-15T00:34:24.731Z,0.00
2019-05-15T00:35:28.015Z,0.00
2019-05-15T00:36:25.721Z,0.00
2019-05-15T00:37:24.721Z,0.00
2019-05-15T00:38:24.768Z,0.00
2019-05-15T00:39:24.698Z,0.00
2019-05-15T00:40:24.673Z,0.00
2019-05-15T00:41:27.816Z,0.00
2019-05-15T00:42:24.654Z,0.00
2019-05-15T00:43:24.707Z,0.00
2019-05-15T00:44:24.835Z,0.00
2019-05-15T00:45:24.622Z,0.00
2019-05-15T00:46:24.741Z,0.00
2019-05-15T00:47:24.599Z,0.00
2019-05-15T00:48:24.674Z,0.00
2019-05-15T00:49:24.583Z,0.00
2019-05-15T00:50:24.758Z,0.00
2019-05-15T00:51:24.594Z,0.00
2019-05-15T00:52:24.586Z,0.00
2019-05-15T00:53:24.569Z,0.00
2019-05-15T00:54:24.524Z,0.00
2019-05-15T00:55:24.758Z,0.00
2019-05-15T00:56:24.509Z,0.00
2019-05-15T00:57:24.602Z,0.00
2019-05-15T00:58:24.541Z,0.00
2019-05-15T00:59:29.358Z,0.00
2019-05-15T01:00:25.559Z,0.00
2019-05-15T01:01:24.684Z,0.00
2019-05-15T01:02:24.451Z,0.00
2019-05-15T01:03:24.467Z,0.00
2019-05-15T01:04:24.438Z,0.00
2019-05-15T01:05:24.614Z,0.00
2019-05-15T01:06:24.411Z,0.00
2019-05-15T01:07:24.579Z,0.00
2019-05-15T01:08:24.377Z,0.00
2019-05-15T01:09:24.414Z,0.00
2019-05-15T01:10:24.445Z,0.00
2019-05-15T01:11:24.493Z,0.00
2019-05-15T01:12:24.337Z,0.00
2019-05-15T01:13:24.448Z,0.00
2019-05-15T01:14:24.312Z,0.00
2019-05-15T01:15:24.471Z,0.00
2019-05-15T01:16:24.346Z,0.00
2019-05-15T01:17:24.369Z,0.00
2019-05-15T01:18:24.361Z,0.00
2019-05-15T01:19:24.359Z,0.00
2019-05-15T01:20:24.231Z,0.00
2019-05-15T01:21:24.289Z,0.00
2019-05-15T01:22:24.237Z,0.00
2019-05-15T01:23:24.360Z,0.00
2019-05-15T01:24:24.223Z,0.00
2019-05-15T01:25:24.373Z,0.00
2019-05-15T01:26:24.264Z,0.00
2019-05-15T01:27:24.278Z,0.00
2019-05-15T01:28:24.227Z,0.00
2019-05-15T01:29:30.980Z,0.00
2019-05-15T01:30:25.150Z,0.00
2019-05-15T01:31:24.338Z,0.00
2019-05-15T01:32:24.130Z,0.00
2019-05-15T01:33:24.317Z,0.00
2019-05-15T01:34:24.103Z,0.00
2019-05-15T01:35:24.233Z,0.00
2019-05-15T01:36:24.088Z,0.00
2019-05-15T01:37:24.115Z,0.00
2019-05-15T01:38:24.117Z,0.00
2019-05-15T01:39:24.117Z,0.00
2019-05-15T01:40:24.052Z,0.00
2019-05-15T01:41:24.249Z,0.00
2019-05-15T01:42:24.016Z,0.00
2019-05-15T01:43:24.073Z,0.00
2019-05-15T01:44:24.127Z,0.00
2019-05-15T01:45:23.999Z,0.00
2019-05-15T01:46:24.125Z,0.00
2019-05-15T01:47:23.982Z,0.00
2019-05-15T01:48:24.012Z,0.00
2019-05-15T01:49:23.949Z,0.00
2019-05-15T01:50:23.978Z,0.00
2019-05-15T01:51:23.935Z,0.00
2019-05-15T01:52:23.972Z,0.00
2019-05-15T01:53:23.957Z,0.00
2019-05-15T01:54:23.963Z,0.00
2019-05-15T01:55:25.006Z,0.00
2019-05-15T01:56:23.878Z,0.00
2019-05-15T01:57:23.996Z,0.00
2019-05-15T01:58:23.868Z,0.00
2019-05-15T01:59:23.959Z,0.00
2019-05-15T02:00:23.846Z,0.00
2019-05-15T02:01:24.003Z,0.00
2019-05-15T02:02:23.819Z,0.00
2019-05-15T02:03:23.950Z,0.00
2019-05-15T02:04:23.843Z,0.00
2019-05-15T02:05:23.786Z,0.00
2019-05-15T02:06:23.992Z,0.00
2019-05-15T02:07:23.768Z,0.00
2019-05-15T02:08:23.781Z,0.00
2019-05-15T02:09:23.761Z,0.00
2019-05-15T02:10:23.837Z,0.00
2019-05-15T02:11:23.729Z,0.00
2019-05-15T02:12:23.890Z,0.00
2019-05-15T02:13:23.718Z,0.00
2019-05-15T02:14:23.773Z,0.00
2019-05-15T02:15:23.733Z,0.00
2019-05-15T02:16:23.800Z,0.00
2019-05-15T02:17:23.679Z,0.00
2019-05-15T02:18:23.814Z,0.00
2019-05-15T02:19:23.714Z,0.00
2019-05-15T02:20:23.772Z,0.00
2019-05-15T02:21:23.726Z,0.00
2019-05-15T02:22:23.642Z,0.00
2019-05-15T02:23:23.735Z,0.00
2019-05-15T02:24:23.637Z,0.00
2019-05-15T02:25:23.772Z,0.00
2019-05-15T02:26:23.628Z,0.00
2019-05-15T02:27:23.677Z,0.00
2019-05-15T02:28:23.552Z,0.00
2019-05-15T02:29:25.083Z,0.00
2019-05-15T02:30:29.058Z,0.00
2019-05-15T02:31:25.516Z,0.00
2019-05-15T02:32:23.562Z,0.00
2019-05-15T02:33:23.510Z,0.00
2019-05-15T02:34:24.621Z,0.00
2019-05-15T02:35:23.488Z,0.00
2019-05-15T02:36:23.643Z,0.00
2019-05-15T02:37:23.507Z,0.00
2019-05-15T02:38:29.190Z,0.00
2019-05-15T02:39:23.489Z,0.00
2019-05-15T02:40:23.573Z,0.00
2019-05-15T02:41:23.416Z,0.00
2019-05-15T02:42:24.555Z,0.00
2019-05-15T02:43:23.568Z,0.00
2019-05-15T02:44:23.423Z,0.00
2019-05-15T02:45:23.491Z,0.00
2019-05-15T02:46:23.416Z,0.00
2019-05-15T02:47:23.505Z,0.00
2019-05-15T02:48:23.529Z,0.00
2019-05-15T02:49:23.369Z,0.00
2019-05-15T02:50:23.499Z,0.00
2019-05-15T02:51:23.317Z,0.00
2019-05-15T02:52:23.440Z,0.00
2019-05-15T02:53:23.370Z,0.00
2019-05-15T02:54:23.285Z,0.00
2019-05-15T02:55:23.427Z,0.00
2019-05-15T02:56:23.270Z,0.00
2019-05-15T02:57:23.376Z,0.00
2019-05-15T02:58:23.250Z,0.00
2019-05-15T02:59:23.240Z,0.00
2019-05-15T03:00:41.043Z,0.00
2019-05-15T03:01:24.233Z,0.00
2019-05-15T03:02:23.294Z,0.00
2019-05-15T03:03:23.195Z,0.00
2019-05-15T03:04:23.303Z,0.00
2019-05-15T03:05:23.224Z,0.00
2019-05-15T03:06:23.320Z,0.00
2019-05-15T03:07:23.164Z,0.00
2019-05-15T03:08:23.289Z,0.00
2019-05-15T03:09:23.138Z,0.00
2019-05-15T03:10:23.167Z,0.00
2019-05-15T03:11:23.118Z,0.00
2019-05-15T03:12:23.255Z,0.00
2019-05-15T03:13:23.147Z,0.00
2019-05-15T03:14:23.165Z,0.00
2019-05-15T03:15:23.130Z,0.00
2019-05-15T03:16:23.215Z,0.00
2019-05-15T03:17:23.053Z,0.00
2019-05-15T03:18:23.190Z,0.00
2019-05-15T03:19:23.037Z,0.00
2019-05-15T03:20:23.208Z,0.00
2019-05-15T03:21:23.058Z,0.00
2019-05-15T03:22:23.009Z,0.00
2019-05-15T03:23:23.116Z,0.00
2019-05-15T03:24:23.022Z,0.00
2019-05-15T03:25:23.081Z,5.62
2019-05-15T03:26:23.010Z,5.62
2019-05-15T03:27:25.087Z,5.62
2019-05-15T03:28:22.958Z,5.62
2019-05-15T03:29:23.094Z,5.62
2019-05-15T03:30:22.932Z,5.62
2019-05-15T03:31:43.660Z,5.62
2019-05-15T03:32:34.310Z,5.62
2019-05-15T03:33:27.634Z,5.62
2019-05-15T03:34:30.753Z,11.25
2019-05-15T03:35:23.890Z,11.25
2019-05-15T03:36:24.502Z,11.25
2019-05-15T03:37:23.080Z,11.25
2019-05-15T03:38:22.864Z,11.25
2019-05-15T03:39:22.915Z,11.25
2019-05-15T03:40:22.929Z,16.88
2019-05-15T03:41:22.801Z,16.88
2019-05-15T03:42:22.946Z,16.88
2019-05-15T03:43:22.786Z,16.88
2019-05-15T03:44:22.867Z,16.88
2019-05-15T03:45:22.785Z,16.88
2019-05-15T03:46:22.860Z,22.50
2019-05-15T03:47:22.793Z,22.50
2019-05-15T03:48:22.734Z,22.50
2019-05-15T03:49:22.791Z,22.50
2019-05-15T03:50:22.752Z,28.12
2019-05-15T03:51:22.728Z,28.12
2019-05-15T03:52:22.812Z,28.12
2019-05-15T03:53:22.688Z,28.12
2019-05-15T03:54:22.723Z,28.12
2019-05-15T03:55:22.829Z,33.75
2019-05-15T03:56:22.691Z,33.75
2019-05-15T03:57:23.274Z,33.75
2019-05-15T03:58:22.631Z,33.75
2019-05-15T03:59:22.621Z,39.38
2019-05-15T04:00:22.637Z,39.38
2019-05-15T04:01:33.992Z,39.38
2019-05-15T04:02:23.657Z,45.00
2019-05-15T04:03:22.694Z,45.00
2019-05-15T04:04:22.587Z,45.00
2019-05-15T04:05:22.576Z,45.00
2019-05-15T04:06:22.649Z,50.62
2019-05-15T04:07:22.541Z,50.62
2019-05-15T04:08:22.679Z,50.62
2019-05-15T04:09:22.534Z,50.62
2019-05-15T04:10:22.504Z,56.25
2019-05-15T04:11:22.502Z,56.25
2019-05-15T04:12:22.631Z,56.25
2019-05-15T04:13:22.534Z,56.25
2019-05-15T04:14:22.514Z,61.88
2019-05-15T04:15:22.475Z,61.88
2019-05-15T04:16:22.450Z,61.88
2019-05-15T04:17:23.543Z,61.88
2019-05-15T04:18:22.507Z,67.50
2019-05-15T04:19:22.477Z,67.50
2019-05-15T04:20:22.411Z,67.50
2019-05-15T04:21:22.444Z,67.50
2019-05-15T04:22:22.445Z,73.12
2019-05-15T04:23:22.464Z,73.12
2019-05-15T04:24:22.440Z,73.12
2019-05-15T04:25:22.382Z,73.12
2019-05-15T04:26:22.360Z,73.12
2019-05-15T04:27:22.394Z,78.75
2019-05-15T04:28:22.326Z,78.75
2019-05-15T04:29:22.512Z,78.75
2019-05-15T04:30:22.317Z,78.75
2019-05-15T04:31:22.414Z,84.38
2019-05-15T04:32:22.319Z,84.38
2019-05-15T04:33:22.399Z,84.38
2019-05-15T04:34:22.364Z,84.38
2019-05-15T04:35:22.358Z,84.38
2019-05-15T04:36:22.255Z,90.00
2019-05-15T04:37:22.250Z,90.00
2019-05-15T04:38:22.293Z,90.00
2019-05-15T04:39:22.354Z,90.00
2019-05-15T04:40:22.214Z,90.00
2019-05-15T04:41:22.297Z,95.62
2019-05-15T04:42:22.192Z,95.62
2019-05-15T04:43:22.179Z,95.62
2019-05-15T04:44:22.229Z,95.62
2019-05-15T04:45:22.294Z,95.62
2019-05-15T04:46:22.160Z,95.62
2019-05-15T04:47:22.223Z,101.25
2019-05-15T04:48:22.127Z,101.25
2019-05-15T04:49:22.148Z,101.25
2019-05-15T04:50:22.154Z,101.25
2019-05-15T04:51:22.158Z,101.25
2019-05-15T04:52:22.134Z,101.25
2019-05-15T04:53:22.166Z,106.88
2019-05-15T04:54:22.106Z,106.88
2019-05-15T04:55:22.094Z,106.88
2019-05-15T04:56:22.101Z,106.88
2019-05-15T04:57:22.316Z,106.88
2019-05-15T04:58:22.027Z,106.88
2019-05-15T04:59:22.098Z,112.50
2019-05-15T05:00:22.057Z,112.50
2019-05-15T05:01:22.027Z,112.50
2019-05-15T05:02:26.531Z,112.50
2019-05-15T05:03:23.049Z,112.50
2019-05-15T05:04:22.049Z,112.50
2019-05-15T05:05:22.058Z,112.50
2019-05-15T05:06:21.955Z,118.12
2019-05-15T05:07:21.963Z,118.12
2019-05-15T05:08:21.912Z,118.12
2019-05-15T05:09:21.976Z,118.12
2019-05-15T05:10:21.964Z,118.12
2019-05-15T05:11:24.038Z,118.12
2019-05-15T05:12:21.995Z,123.75
2019-05-15T05:13:21.882Z,123.75
2019-05-15T05:14:21.961Z,123.75
2019-05-15T05:15:21.843Z,123.75
2019-05-15T05:16:21.840Z,118.12
2019-05-15T05:17:21.851Z,123.75
2019-05-15T05:18:21.929Z,123.75
2019-05-15T05:19:21.859Z,123.75
2019-05-15T05:20:21.897Z,123.75
2019-05-15T05:21:21.783Z,123.75
2019-05-15T05:22:21.862Z,123.75
2019-05-15T05:23:21.805Z,129.38
2019-05-15T05:24:21.894Z,129.38
2019-05-15T05:25:21.747Z,129.38
2019-05-15T05:26:22.892Z,129.38
2019-05-15T05:27:21.780Z,129.38
2019-05-15T05:28:21.753Z,129.38
2019-05-15T05:29:21.784Z,129.38
2019-05-15T05:30:21.695Z,135.00
2019-05-15T05:31:21.735Z,135.00
2019-05-15T05:32:34.336Z,135.00
2019-05-15T05:33:22.657Z,135.00
2019-05-15T05:34:21.724Z,135.00
2019-05-15T05:35:21.659Z,135.00
2019-05-15T05:36:21.764Z,135.00
2019-05-15T05:37:21.686Z,135.00
2019-05-15T05:38:21.604Z,135.00
2019-05-15T05:39:21.678Z,135.00
2019-05-15T05:40:21.633Z,140.62
2019-05-15T05:41:21.769Z,140.62
2019-05-15T05:42:21.571Z,140.62
2019-05-15T05:43:21.585Z,140.62
2019-05-15T05:44:21.582Z,140.62
2019-05-15T05:45:21.599Z,140.62
2019-05-15T05:46:21.541Z,140.62
2019-05-15T05:47:21.633Z,140.62
2019-05-15T05:48:21.509Z,140.62
2019-05-15T05:49:21.534Z,140.62
2019-05-15T05:50:28.823Z,140.62
2019-05-15T05:51:21.471Z,146.25
2019-05-15T05:52:23.496Z,146.25
2019-05-15T05:53:21.658Z,146.25
2019-05-15T05:54:21.451Z,146.25
2019-05-15T05:55:21.449Z,146.25
2019-05-15T05:56:21.490Z,146.25
2019-05-15T05:57:21.456Z,146.25
2019-05-15T05:58:21.572Z,146.25
2019-05-15T05:59:21.393Z,146.25
2019-05-15T06:00:21.368Z,146.25
2019-05-15T06:01:21.439Z,146.25
2019-05-15T06:02:21.355Z,146.25
2019-05-15T06:03:21.528Z,151.88
2019-05-15T06:04:21.339Z,151.88
2019-05-15T06:05:21.328Z,151.88
2019-05-15T06:06:21.346Z,151.88
2019-05-15T06:07:21.362Z,151.88
2019-05-15T06:08:21.298Z,151.88
2019-05-15T06:09:21.378Z,151.88
2019-05-15T06:10:21.269Z,151.88
2019-05-15T06:11:21.305Z,151.88
2019-05-15T06:12:21.290Z,151.88
2019-05-15T06:13:21.239Z,151.88
2019-05-15T06:14:21.318Z,151.88
2019-05-15T06:15:21.285Z,157.50
2019-05-15T06:16:21.215Z,157.50
2019-05-15T06:17:21.298Z,157.50
2019-05-15T06:18:21.229Z,157.50
2019-05-15T06:19:21.207Z,157.50
2019-05-15T06:20:21.254Z,157.50
2019-05-15T06:21:21.179Z,157.50
2019-05-15T06:22:21.318Z,157.50
2019-05-15T06:23:24.353Z,157.50
2019-05-15T06:24:21.187Z,157.50
2019-05-15T06:25:21.113Z,157.50
2019-05-15T06:26:21.181Z,157.50
2019-05-15T06:27:21.260Z,157.50
2019-05-15T06:28:21.116Z,157.50
2019-05-15T06:29:21.213Z,157.50
2019-05-15T06:30:26.692Z,157.50
2019-05-15T06:31:22.063Z,163.12
2019-05-15T06:32:21.190Z,163.12
2019-05-15T06:33:21.045Z,163.12
2019-05-15T06:34:22.049Z,163.12
2019-05-15T06:35:21.015Z,163.12
2019-05-15T06:36:21.043Z,163.12
2019-05-15T06:37:21.062Z,163.12
2019-05-15T06:38:21.020Z,163.12
2019-05-15T06:39:20.982Z,163.12
2019-05-15T06:40:21.087Z,163.12
2019-05-15T06:41:20.946Z,163.12
2019-05-15T06:42:21.042Z,163.12
2019-05-15T06:43:20.973Z,168.75
2019-05-15T06:44:20.917Z,163.12
2019-05-15T06:45:20.922Z,163.12
2019-05-15T06:46:21.010Z,163.12
2019-05-15T06:47:20.908Z,168.75
2019-05-15T06:48:20.993Z,168.75
2019-05-15T06:49:20.873Z,168.75
2019-05-15T06:50:20.973Z,168.75
2019-05-15T06:51:20.845Z,168.75
2019-05-15T06:52:20.940Z,168.75
2019-05-15T06:53:20.904Z,168.75
2019-05-15T06:54:20.859Z,168.75
2019-05-15T06:55:20.882Z,168.75
2019-05-15T06:56:20.797Z,168.75
2019-05-15T06:57:20.947Z,168.75
2019-05-15T06:58:20.781Z,168.75
2019-05-15T06:59:20.786Z,168.75
2019-05-15T07:00:20.804Z,168.75
2019-05-15T07:01:20.751Z,168.75
2019-05-15T07:02:20.808Z,168.75
2019-05-15T07:03:25.824Z,168.75
2019-05-15T07:04:21.746Z,168.75
2019-05-15T07:05:20.767Z,174.38
2019-05-15T07:06:20.676Z,174.38
2019-05-15T07:07:20.674Z,174.38
2019-05-15T07:08:20.762Z,174.38
2019-05-15T07:09:20.714Z,174.38
2019-05-15T07:10:20.855Z,174.38
2019-05-15T07:11:20.674Z,174.38
2019-05-15T07:12:20.621Z,174.38
2019-05-15T07:13:20.681Z,174.38
2019-05-15T07:14:20.611Z,174.38
2019-05-15T07:15:21.716Z,174.38
2019-05-15T07:16:20.578Z,174.38
2019-05-15T07:17:20.614Z,174.38
2019-05-15T07:18:20.599Z,174.38
2019-05-15T07:19:20.786Z,174.38
2019-05-15T07:20:20.590Z,174.38
2019-05-15T07:21:20.771Z,174.38
2019-05-15T07:22:20.564Z,174.38
2019-05-15T07:23:20.557Z,174.38
2019-05-15T07:24:20.503Z,174.38
2019-05-15T07:25:21.565Z,174.38
2019-05-15T07:26:20.527Z,174.38
2019-05-15T07:27:20.565Z,174.38
2019-05-15T07:28:20.460Z,174.38
2019-05-15T07:29:20.459Z,180.00
2019-05-15T07:30:20.437Z,180.00
2019-05-15T07:31:20.544Z,180.00
2019-05-15T07:32:20.467Z,180.00
2019-05-15T07:33:35.454Z,180.00
2019-05-15T07:34:21.387Z,180.00
2019-05-15T07:35:20.474Z,180.00
2019-05-15T07:36:20.423Z,180.00
2019-05-15T07:37:20.510Z,180.00
2019-05-15T07:38:20.349Z,180.00
2019-05-15T07:39:20.439Z,180.00
2019-05-15T07:40:20.345Z,191.25
2019-05-15T07:41:20.365Z,180.00
2019-05-15T07:42:20.345Z,180.00
2019-05-15T07:43:20.425Z,180.00
2019-05-15T07:44:20.329Z,180.00
2019-05-15T07:45:20.292Z,180.00
2019-05-15T07:46:20.268Z,180.00
2019-05-15T07:47:20.343Z,180.00
2019-05-15T07:48:20.239Z,180.00
2019-05-15T07:49:20.301Z,180.00
2019-05-15T07:50:20.222Z,185.62
2019-05-15T07:51:20.286Z,185.62
2019-05-15T07:52:20.216Z,185.62
2019-05-15T07:53:20.434Z,185.62
2019-05-15T07:54:20.183Z,185.62
2019-05-15T07:55:20.259Z,185.62
2019-05-15T07:56:20.248Z,185.62
2019-05-15T07:57:20.142Z,185.62
2019-05-15T07:58:21.917Z,185.62
2019-05-15T07:59:20.161Z,185.62
2019-05-15T08:00:20.181Z,185.62
2019-05-15T08:01:20.121Z,185.62
2019-05-15T08:02:20.255Z,185.62
2019-05-15T08:03:20.087Z,185.62
2019-05-15T08:04:28.738Z,185.62
2019-05-15T08:05:21.118Z,185.62
2019-05-15T08:06:20.151Z,185.62
2019-05-15T08:07:20.119Z,191.25
2019-05-15T08:08:20.037Z,191.25
2019-05-15T08:09:21.128Z,191.25
2019-05-15T08:10:20.011Z,191.25
2019-05-15T08:11:24.461Z,191.25
2019-05-15T08:12:20.040Z,191.25
2019-05-15T08:13:20.237Z,191.25
2019-05-15T08:14:20.007Z,191.25
2019-05-15T08:15:20.025Z,191.25
2019-05-15T08:16:19.948Z,191.25
2019-05-15T08:17:22.021Z,191.25
2019-05-15T08:18:20.047Z,191.25
2019-05-15T08:19:19.924Z,191.25
2019-05-15T08:20:20.089Z,191.25
2019-05-15T08:21:19.943Z,191.25
2019-05-15T08:22:19.918Z,191.25
2019-05-15T08:23:19.876Z,191.25
2019-05-15T08:24:19.943Z,196.88
2019-05-15T08:25:31.067Z,196.88
2019-05-15T08:26:20.909Z,196.88
2019-05-15T08:27:19.863Z,196.88
2019-05-15T08:28:19.865Z,196.88
2019-05-15T08:29:21.838Z,196.88
2019-05-15T08:30:19.866Z,196.88
2019-05-15T08:31:19.794Z,196.88
2019-05-15T08:32:19.908Z,196.88
2019-05-15T08:33:19.879Z,196.88
2019-05-15T08:34:19.895Z,196.88
2019-05-15T08:35:19.749Z,196.88
2019-05-15T08:36:19.807Z,196.88
2019-05-15T08:37:19.730Z,196.88
2019-05-15T08:38:19.793Z,196.88
2019-05-15T08:39:19.760Z,196.88
2019-05-15T08:40:19.722Z,202.50
2019-05-15T08:41:19.740Z,202.50
2019-05-15T08:42:19.683Z,202.50
2019-05-15T08:43:19.753Z,202.50
2019-05-15T08:44:19.688Z,202.50
2019-05-15T08:45:19.645Z,202.50
2019-05-15T08:46:19.662Z,202.50
2019-05-15T08:47:19.699Z,202.50
2019-05-15T08:48:19.676Z,202.50
2019-05-15T08:49:20.504Z,202.50
2019-05-15T08:50:19.589Z,202.50
2019-05-15T08:51:19.582Z,208.12
2019-05-15T08:52:19.674Z,208.12
2019-05-15T08:53:19.787Z,208.12
2019-05-15T08:54:19.641Z,208.12
2019-05-15T08:55:20.216Z,208.12
2019-05-15T08:56:19.737Z,208.12
2019-05-15T08:57:20.487Z,208.12
2019-05-15T08:58:20.622Z,208.12
2019-05-15T08:59:19.571Z,208.12
2019-05-15T09:00:19.554Z,208.12
2019-05-15T09:01:19.587Z,213.75
2019-05-15T09:02:19.459Z,213.75
2019-05-15T09:03:19.499Z,213.75
2019-05-15T09:04:30.457Z,213.75
2019-05-15T09:05:20.489Z,213.75
2019-05-15T09:06:22.867Z,213.75
2019-05-15T09:07:19.550Z,213.75
2019-05-15T09:08:19.969Z,213.75
2019-05-15T09:09:19.425Z,213.75
2019-05-15T09:10:19.422Z,213.75
2019-05-15T09:11:19.447Z,213.75
2019-05-15T09:12:19.356Z,213.75
2019-05-15T09:13:19.488Z,213.75
2019-05-15T09:14:19.333Z,213.75
2019-05-15T09:15:19.420Z,213.75
2019-05-15T09:16:19.325Z,213.75
2019-05-15T09:17:19.369Z,213.75
2019-05-15T09:18:20.465Z,213.75
2019-05-15T09:19:19.405Z,213.75
2019-05-15T09:20:19.643Z,219.38
2019-05-15T09:21:19.535Z,219.38
2019-05-15T09:22:19.295Z,225.00
2019-05-15T09:23:19.891Z,230.62
2019-05-15T09:24:19.862Z,230.62
2019-05-15T09:25:19.584Z,230.62
2019-05-15T09:26:19.620Z,225.00
2019-05-15T09:27:19.310Z,225.00
2019-05-15T09:28:19.587Z,225.00
2019-05-15T09:29:19.202Z,225.00
2019-05-15T09:30:19.257Z,225.00
2019-05-15T09:31:19.482Z,219.38
2019-05-15T09:32:19.360Z,219.38
2019-05-15T09:33:19.957Z,225.00
2019-05-15T09:34:19.134Z,225.00
2019-05-15T09:35:19.180Z,225.00
2019-05-15T09:36:20.244Z,230.62
2019-05-15T09:37:19.096Z,230.62
2019-05-15T09:38:19.202Z,225.00
2019-05-15T09:39:19.079Z,225.00
2019-05-15T09:40:19.087Z,230.62
2019-05-15T09:41:19.130Z,230.62
2019-05-15T09:42:19.092Z,230.62
2019-05-15T09:43:19.152Z,230.62
2019-05-15T09:44:21.749Z,230.62
2019-05-15T09:45:19.043Z,230.62
2019-05-15T09:46:19.019Z,230.62
2019-05-15T09:47:19.126Z,230.62
2019-05-15T09:48:20.036Z,230.62
2019-05-15T09:49:19.086Z,230.62
2019-05-15T09:50:19.518Z,230.62
2019-05-15T09:51:18.988Z,230.62
2019-05-15T09:52:22.687Z,230.62
2019-05-15T09:53:19.559Z,230.62
2019-05-15T09:54:19.299Z,236.25
2019-05-15T09:55:18.902Z,241.88
2019-05-15T09:56:18.944Z,247.50
2019-05-15T09:57:19.007Z,253.12
2019-05-15T09:58:20.436Z,253.12
2019-05-15T09:59:18.934Z,258.75
2019-05-15T10:00:19.157Z,258.75
2019-05-15T10:01:19.578Z,258.75
2019-05-15T10:02:19.177Z,253.12
2019-05-15T10:03:19.158Z,247.50
2019-05-15T10:04:19.196Z,253.12
2019-05-15T10:05:18.991Z,253.12
2019-05-15T10:06:20.502Z,258.75
2019-05-15T10:07:19.401Z,258.75
2019-05-15T10:08:21.363Z,258.75
2019-05-15T10:09:19.119Z,275.62
2019-05-15T10:10:19.313Z,292.50
2019-05-15T10:11:19.785Z,326.25
2019-05-15T10:12:18.725Z,337.50
2019-05-15T10:13:18.857Z,348.75
2019-05-15T10:14:19.451Z,382.50
2019-05-15T10:15:18.840Z,444.38
2019-05-15T10:16:19.883Z,495.00
2019-05-15T10:17:18.762Z,489.38
2019-05-15T10:18:19.247Z,455.62
2019-05-15T10:19:18.787Z,461.25
2019-05-15T10:20:18.647Z,376.88
2019-05-15T10:21:18.882Z,343.12
2019-05-15T10:22:18.855Z,376.88
2019-05-15T10:23:19.851Z,315.00
2019-05-15T10:24:18.593Z,286.88
2019-05-15T10:25:19.094Z,275.62
2019-05-15T10:26:19.237Z,275.62
2019-05-15T10:27:18.684Z,258.75
2019-05-15T10:28:19.109Z,303.75
2019-05-15T10:29:18.544Z,303.75
2019-05-15T10:30:19.052Z,309.38
2019-05-15T10:31:19.470Z,286.88
2019-05-15T10:32:19.437Z,303.75
2019-05-15T10:33:19.738Z,286.88
2019-05-15T10:34:18.543Z,281.25
2019-05-15T10:35:25.504Z,292.50
2019-05-15T10:36:19.488Z,331.88
2019-05-15T10:37:21.729Z,360.00
2019-05-15T10:38:19.288Z,365.62
2019-05-15T10:39:18.592Z,376.88
2019-05-15T10:40:20.385Z,354.38
2019-05-15T10:41:19.003Z,371.25
2019-05-15T10:42:19.337Z,360.00
2019-05-15T10:43:20.570Z,393.75
2019-05-15T10:44:18.390Z,371.25
2019-05-15T10:45:19.246Z,298.12
2019-05-15T10:46:19.053Z,292.50
2019-05-15T10:47:18.548Z,309.38
2019-05-15T10:48:19.104Z,303.75
2019-05-15T10:49:18.918Z,281.25
2019-05-15T10:50:19.152Z,275.62
2019-05-15T10:51:19.430Z,281.25
2019-05-15T10:52:18.525Z,388.12
2019-05-15T10:53:18.989Z,1659.38
2019-05-15T10:54:19.294Z,2868.75
2019-05-15T10:55:18.908Z,2975.62
2019-05-15T10:56:18.703Z,1569.38
2019-05-15T10:57:18.896Z,3015.00
2019-05-15T10:58:22.218Z,2964.38
2019-05-15T10:59:18.492Z,2868.75
2019-05-15T11:00:19.457Z,2930.62
2019-05-15T11:01:19.251Z,2857.50
2019-05-15T11:02:19.166Z,2728.12
2019-05-15T11:03:20.060Z,2840.62
2019-05-15T11:04:18.238Z,1912.50
2019-05-15T11:05:18.293Z,1344.38
2019-05-15T11:06:18.444Z,343.12
2019-05-15T11:07:19.467Z,2930.62
2019-05-15T11:08:18.821Z,2919.38
2019-05-15T11:09:18.679Z,2818.12
2019-05-15T11:10:18.686Z,2728.12
2019-05-15T11:11:18.491Z,2778.75
2019-05-15T11:12:18.847Z,2846.25
2019-05-15T11:13:18.822Z,2936.25
2019-05-15T11:14:18.505Z,2953.12
2019-05-15T11:15:18.632Z,2846.25
2019-05-15T11:16:18.565Z,2846.25
2019-05-15T11:17:18.216Z,3048.75
2019-05-15T11:18:18.026Z,3166.88
2019-05-15T11:19:18.018Z,3240.00
2019-05-15T11:20:18.803Z,3313.12
2019-05-15T11:21:19.025Z,3301.88
2019-05-15T11:22:18.792Z,3195.00
2019-05-15T11:23:20.068Z,3127.50
2019-05-15T11:24:19.580Z,3099.38
2019-05-15T11:25:17.954Z,720.00
2019-05-15T11:26:20.242Z,691.88
2019-05-15T11:27:19.091Z,2683.12
2019-05-15T11:28:18.094Z,2790.00
2019-05-15T11:29:17.912Z,810.00
2019-05-15T11:30:19.193Z,810.00
2019-05-15T11:31:17.892Z,523.12
2019-05-15T11:32:18.071Z,871.88
2019-05-15T11:33:18.989Z,630.00
2019-05-15T11:34:18.952Z,2053.12
2019-05-15T11:35:18.544Z,2418.75
2019-05-15T11:36:18.504Z,2272.50
2019-05-15T11:37:18.991Z,528.75
2019-05-15T11:38:19.413Z,444.38
2019-05-15T11:39:18.363Z,483.75
2019-05-15T11:40:18.865Z,2705.62
2019-05-15T11:41:19.123Z,2998.12
2019-05-15T11:42:20.097Z,2891.25
2019-05-15T11:43:19.709Z,2863.12
2019-05-15T11:44:18.792Z,2857.50
2019-05-15T11:45:18.640Z,2728.12
2019-05-15T11:46:18.616Z,2818.12
2019-05-15T11:47:18.446Z,736.88
2019-05-15T11:48:20.595Z,759.38
2019-05-15T11:49:18.222Z,680.62
2019-05-15T11:50:20.549Z,573.75
2019-05-15T11:51:18.480Z,517.50
2019-05-15T11:52:18.765Z,630.00
2019-05-15T11:53:19.252Z,556.88
2019-05-15T11:54:19.147Z,545.62
2019-05-15T11:55:17.658Z,2750.62
2019-05-15T11:56:18.876Z,2407.50
2019-05-15T11:57:19.082Z,2480.62
2019-05-15T11:58:18.953Z,2728.12
2019-05-15T11:59:18.448Z,2823.75
2019-05-15T12:00:25.710Z,1800.00
2019-05-15T12:01:19.645Z,2795.62
2019-05-15T12:02:18.878Z,568.12
2019-05-15T12:03:19.592Z,2728.12
2019-05-15T12:04:29.636Z,1051.88
2019-05-15T12:05:18.626Z,534.38
2019-05-15T12:06:21.871Z,511.88
2019-05-15T12:07:18.562Z,500.62
2019-05-15T12:08:18.519Z,528.75
2019-05-15T12:09:18.803Z,618.75
2019-05-15T12:10:18.416Z,916.88
2019-05-15T12:11:32.108Z,630.00
2019-05-15T12:12:18.517Z,601.88
2019-05-15T12:13:19.012Z,618.75
2019-05-15T12:14:19.338Z,635.62
2019-05-15T12:15:19.083Z,641.25
2019-05-15T12:16:18.494Z,691.88
2019-05-15T12:17:18.970Z,798.75
2019-05-15T12:18:17.575Z,821.25
2019-05-15T12:19:17.651Z,2728.12
2019-05-15T12:20:19.285Z,1006.88
2019-05-15T12:21:19.856Z,810.00
2019-05-15T12:22:17.583Z,770.62
2019-05-15T12:23:17.323Z,720.00
2019-05-15T12:24:17.494Z,748.12
2019-05-15T12:25:17.367Z,2790.00
2019-05-15T12:26:17.512Z,703.12
2019-05-15T12:27:18.397Z,658.12
2019-05-15T12:28:17.321Z,658.12
2019-05-15T12:29:17.285Z,669.38
2019-05-15T12:30:19.869Z,714.38
2019-05-15T12:31:17.293Z,810.00
2019-05-15T12:33:18.491Z,855.00
2019-05-15T12:34:18.850Z,832.50
2019-05-15T12:35:20.388Z,855.00
2019-05-15T12:37:19.778Z,1631.25
2019-05-15T12:38:18.588Z,748.12
2019-05-15T12:39:21.797Z,703.12
2019-05-15T13:00:18.578Z,590.62
2019-05-15T13:01:18.379Z,613.12
2019-05-15T13:02:18.684Z,641.25
2019-05-15T13:03:18.216Z,894.38
2019-05-15T13:04:16.924Z,579.38